createdAt,value
2019-05-21T00:00:13.140Z,174.57
2019-05-21T00:03:17.370Z,184.95
2019-05-21T00:06:21.670Z,160.20
2019-05-21T00:09:26.028Z,158.40
2019-05-21T00:12:30.223Z,171.45
2019-05-21T00:15:34.450Z,161.52
2019-05-21T00:18:38.694Z,150.30
2019-05-21T00:21:43.126Z,136.82
2019-05-21T00:24:47.572Z,145.75
2019-05-21T00:27:51.915Z,143.10
2019-05-21T00:31:32.259Z,152.70
2019-05-21T00:35:12.410Z,133.40
2019-05-21T00:38:52.732Z,148.35
2019-05-21T00:42:05.066Z,139.97
2019-05-21T00:45:11.110Z,140.45
2019-05-21T00:48:15.403Z,153.95
2019-05-21T00:51:19.585Z,145.30
2019-05-21T00:54:23.992Z,135.95
2019-05-21T00:57:28.261Z,158.37
2019-05-21T01:00:32.559Z,147.53
2019-05-21T01:03:36.747Z,139.35
2019-05-21T01:06:41.179Z,160.48
2019-05-21T01:09:45.348Z,161.15
2019-05-21T01:12:49.579Z,156.32
2019-05-21T01:15:53.785Z,156.78
2019-05-21T01:19:01.082Z,163.25
2019-05-21T01:22:05.291Z,162.95
2019-05-21T01:25:12.281Z,152.30
2019-05-21T01:28:16.868Z,144.45
2019-05-21T01:31:21.258Z,141.10
2019-05-21T01:34:25.595Z,147.72
2019-05-21T01:37:31.087Z,146.60
2019-05-21T01:40:35.396Z,144.13
2019-05-21T01:43:39.644Z,148.55
2019-05-21T01:46:43.839Z,155.87
2019-05-21T01:49:48.190Z,140.15
2019-05-21T01:52:52.459Z,147.50
2019-05-21T01:55:56.878Z,139.32
2019-05-21T01:59:01.110Z,142.05
2019-05-21T02:02:05.497Z,144.20
2019-05-21T02:05:10.016Z,149.40
2019-05-21T02:08:14.288Z,150.60
2019-05-21T02:11:18.508Z,140.47
2019-05-21T02:14:22.784Z,167.98
2019-05-21T02:17:27.143Z,163.35
2019-05-21T02:20:31.594Z,156.52
2019-05-21T02:23:35.874Z,153.57
2019-05-21T02:26:40.170Z,175.20
2019-05-21T02:29:44.467Z,171.30
2019-05-21T02:32:48.778Z,181.65
2019-05-21T02:35:54.849Z,170.87
2019-05-21T02:38:59.138Z,162.12
2019-05-21T02:42:03.411Z,171.60
2019-05-21T02:45:09.380Z,167.05
2019-05-21T02:48:13.922Z,160.25
2019-05-21T02:51:18.235Z,154.68
2019-05-21T02:54:39.194Z,151.53
2019-05-21T02:57:39.055Z,158.00
2019-05-21T03:01:01.343Z,149.75
2019-05-21T03:04:05.665Z,145.45
2019-05-21T03:07:18.770Z,157.67
2019-05-21T03:10:23.139Z,163.30
2019-05-21T03:13:27.344Z,162.92
2019-05-21T03:16:31.670Z,159.03
2019-05-21T03:19:35.943Z,164.95
2019-05-21T03:22:40.173Z,175.10
2019-05-21T03:25:44.452Z,157.50
2019-05-21T03:28:48.755Z,156.30
2019-05-21T03:31:53.080Z,163.60
2019-05-21T03:34:57.430Z,185.48
2019-05-21T03:38:01.718Z,163.85
2019-05-21T03:41:06.083Z,167.65
2019-05-21T03:44:10.402Z,165.18
2019-05-21T03:47:14.764Z,161.68
2019-05-21T03:50:19.080Z,167.70
2019-05-21T03:53:23.426Z,172.50
2019-05-21T03:56:27.756Z,186.90
2019-05-21T03:59:32.119Z,181.85
2019-05-21T04:02:36.396Z,210.88
2019-05-21T04:05:40.772Z,198.23
2019-05-21T04:08:45.047Z,204.10
2019-05-21T04:11:53.140Z,218.05
2019-05-21T04:14:59.590Z,226.65
2019-05-21T04:18:08.521Z,194.90
2019-05-21T04:21:12.824Z,180.40
2019-05-21T04:24:17.079Z,184.63
2019-05-21T04:27:21.262Z,194.70
2019-05-21T04:30:25.647Z,202.38
2019-05-21T04:33:29.838Z,182.93
2019-05-21T04:36:34.148Z,183.42
2019-05-21T04:39:38.368Z,169.93
2019-05-21T04:42:42.651Z,184.10
2019-05-21T04:45:46.921Z,175.35
2019-05-21T04:48:51.216Z,166.47
2019-05-21T04:51:55.483Z,156.78
2019-05-21T04:54:59.841Z,157.00
2019-05-21T04:58:04.273Z,166.53
2019-05-21T05:01:08.642Z,167.95
2019-05-21T05:04:12.900Z,150.62
2019-05-21T05:07:27.621Z,155.85
2019-05-21T05:10:23.435Z,132.72
2019-05-21T05:13:27.754Z,137.52
2019-05-21T05:16:32.077Z,124.82
2019-05-21T05:19:36.542Z,122.95
2019-05-21T05:22:40.830Z,119.97
2019-05-21T05:25:45.154Z,117.30
2019-05-21T05:28:49.432Z,118.42
2019-05-21T05:31:53.776Z,122.65
2019-05-21T05:34:58.060Z,114.60
2019-05-21T05:38:02.580Z,116.75
2019-05-21T05:41:06.843Z,113.77
2019-05-21T05:44:11.301Z,115.08
2019-05-21T05:47:15.598Z,104.17
2019-05-21T05:50:22.446Z,107.20
2019-05-21T05:53:26.738Z,110.42
2019-05-21T05:56:31.208Z,112.17
2019-05-21T05:59:35.607Z,118.30
2019-05-21T06:02:40.021Z,112.65
2019-05-21T06:05:44.328Z,103.95
2019-05-21T06:08:49.194Z,97.42
2019-05-21T06:11:53.466Z,95.87
2019-05-21T06:14:57.724Z,98.42
2019-05-21T06:18:02.067Z,108.45
2019-05-21T06:21:06.455Z,101.25
2019-05-21T06:24:13.481Z,90.40
2019-05-21T06:27:16.739Z,101.33
2019-05-21T06:30:21.109Z,78.05
2019-05-21T06:33:25.411Z,88.58
2019-05-21T06:36:29.632Z,84.00
2019-05-21T06:39:34.053Z,84.40
2019-05-21T06:42:38.312Z,83.27
2019-05-21T06:45:42.686Z,87.17
2019-05-21T06:48:46.972Z,90.92
2019-05-21T06:51:51.303Z,79.37
2019-05-21T06:54:55.741Z,79.15
2019-05-21T06:58:00.116Z,77.72
2019-05-21T07:01:04.357Z,81.02
2019-05-21T07:04:08.620Z,81.72
2019-05-21T07:07:12.909Z,83.70
2019-05-21T07:10:17.461Z,69.10
2019-05-21T07:13:21.742Z,63.95
2019-05-21T07:16:26.022Z,68.20
2019-05-21T07:19:30.230Z,62.15
2019-05-21T07:22:34.707Z,57.30
2019-05-21T07:25:42.007Z,69.58
2019-05-21T07:28:46.356Z,60.08
2019-05-21T07:31:50.608Z,63.10
2019-05-21T07:34:55.026Z,73.22
2019-05-21T07:37:59.237Z,70.10
2019-05-21T07:41:03.622Z,65.37
2019-05-21T07:44:07.908Z,69.25
2019-05-21T07:47:12.270Z,64.80
2019-05-21T07:50:16.572Z,65.00
2019-05-21T07:53:20.906Z,64.58
2019-05-21T07:56:25.289Z,66.37
2019-05-21T07:59:31.104Z,60.00
2019-05-21T08:02:35.393Z,60.55
2019-05-21T08:05:39.768Z,60.78
2019-05-21T08:08:44.260Z,63.15
2019-05-21T08:11:48.962Z,63.40
2019-05-21T08:14:58.225Z,72.40
2019-05-21T08:18:02.540Z,64.22
2019-05-21T08:21:06.799Z,61.00
2019-05-21T08:24:11.089Z,59.77
2019-05-21T08:27:15.439Z,60.67
2019-05-21T08:30:19.945Z,66.80
2019-05-21T08:33:24.246Z,63.00
2019-05-21T08:36:28.545Z,58.95
2019-05-21T08:39:32.798Z,56.00
2019-05-21T08:42:37.054Z,59.25
2019-05-21T08:45:41.322Z,64.85
2019-05-21T08:48:45.747Z,53.13
2019-05-21T08:51:49.960Z,60.10
2019-05-21T08:54:56.512Z,59.73
2019-05-21T08:58:07.030Z,65.15
2019-05-21T09:01:06.246Z,56.55
2019-05-21T09:04:10.514Z,56.53
2019-05-21T09:07:14.867Z,54.73
2019-05-21T09:10:19.120Z,52.50
2019-05-21T09:13:23.345Z,50.00
2019-05-21T09:16:27.598Z,49.85
2019-05-21T09:19:36.121Z,47.58
2019-05-21T09:22:37.868Z,47.60
2019-05-21T09:25:42.181Z,36.25
2019-05-21T09:28:46.416Z,35.28
2019-05-21T09:31:50.636Z,39.58
2019-05-21T09:34:54.907Z,35.68
2019-05-21T09:37:59.141Z,33.83
2019-05-21T09:41:03.487Z,33.80
2019-05-21T09:44:07.771Z,28.62
2019-05-21T09:47:11.973Z,32.30
2019-05-21T09:50:16.686Z,31.68
2019-05-21T09:53:20.967Z,34.00
2019-05-21T09:56:35.388Z,28.70
2019-05-21T09:59:54.339Z,31.10
2019-05-21T10:02:58.607Z,36.60
2019-05-21T10:06:02.880Z,31.82
2019-05-21T10:09:11.995Z,32.35
2019-05-21T10:12:16.232Z,26.20
2019-05-21T10:15:20.512Z,23.98
2019-05-21T10:18:24.776Z,26.65
2019-05-21T10:21:28.990Z,24.20
2019-05-21T10:24:33.267Z,31.48
2019-05-21T10:27:37.677Z,26.77
2019-05-21T10:30:41.944Z,32.83
2019-05-21T10:33:46.235Z,27.95
2019-05-21T10:36:50.467Z,32.03
2019-05-21T10:39:54.798Z,30.55
2019-05-21T10:43:02.053Z,31.45
2019-05-21T10:46:06.689Z,31.20
2019-05-21T10:49:10.871Z,34.00
2019-05-21T10:52:15.174Z,26.02
2019-05-21T10:55:19.398Z,29.25
2019-05-21T10:58:23.839Z,30.37
2019-05-21T11:01:46.028Z,27.32
2019-05-21T11:05:00.502Z,27.40
2019-05-21T11:08:23.103Z,25.57
2019-05-21T11:11:11.809Z,35.48
2019-05-21T11:14:16.896Z,27.35
2019-05-21T11:17:21.319Z,25.50
2019-05-21T11:20:25.646Z,25.50
2019-05-21T11:23:29.895Z,30.75
2019-05-21T11:26:34.180Z,28.27
2019-05-21T11:29:38.415Z,31.15
2019-05-21T11:32:42.651Z,24.70
2019-05-21T11:35:47.995Z,28.90
2019-05-21T11:38:52.287Z,29.00
2019-05-21T11:41:56.794Z,26.77
2019-05-21T11:45:01.151Z,27.27
2019-05-21T11:48:05.384Z,26.02
2019-05-21T11:51:12.630Z,29.18
2019-05-21T11:54:15.619Z,27.05
2019-05-21T11:57:20.006Z,25.77
2019-05-21T12:00:26.145Z,27.70
2019-05-21T12:03:30.389Z,30.23
2019-05-21T12:06:34.877Z,22.20
2019-05-21T12:09:39.164Z,22.87
2019-05-21T12:12:43.403Z,19.45
2019-05-21T12:15:47.736Z,26.40
2019-05-21T12:18:51.976Z,21.90
2019-05-21T12:21:56.159Z,19.07
2019-05-21T12:25:00.402Z,22.70
2019-05-21T12:28:04.781Z,21.42
2019-05-21T12:31:09.025Z,20.52
2019-05-21T12:34:13.323Z,17.73
2019-05-21T12:37:17.577Z,18.57
2019-05-21T12:40:22.043Z,18.87
2019-05-21T12:43:26.274Z,20.40
2019-05-21T12:46:30.538Z,18.15
2019-05-21T12:49:34.834Z,15.80
2019-05-21T12:52:39.152Z,20.40
2019-05-21T12:55:43.545Z,19.25
2019-05-21T12:58:47.824Z,15.08
2019-05-21T13:01:52.325Z,16.57
2019-05-21T13:04:56.581Z,12.82
2019-05-21T13:08:00.835Z,24.30
2019-05-21T13:11:05.128Z,21.35
2019-05-21T13:14:09.473Z,20.15
2019-05-21T13:17:13.975Z,14.43
2019-05-21T13:20:18.694Z,15.78
2019-05-21T13:23:23.080Z,19.62
2019-05-21T13:26:27.312Z,13.13
2019-05-21T13:29:31.913Z,15.10
2019-05-21T13:32:36.445Z,19.05
2019-05-21T13:35:40.788Z,20.72
2019-05-21T13:38:48.094Z,18.95
2019-05-21T13:41:52.336Z,15.10
2019-05-21T13:44:57.734Z,14.28
2019-05-21T13:48:02.009Z,16.85
2019-05-21T13:51:06.441Z,18.20
2019-05-21T13:54:10.752Z,16.12
2019-05-21T13:57:15.068Z,17.23
2019-05-21T14:00:28.417Z,18.87
2019-05-21T14:03:32.661Z,17.25
2019-05-21T14:06:37.018Z,24.52
2019-05-21T14:09:41.360Z,19.73
2019-05-21T14:12:47.814Z,17.98
2019-05-21T14:15:52.100Z,16.73
2019-05-21T14:18:56.466Z,20.15
2019-05-21T14:22:00.746Z,13.90
2019-05-21T14:25:05.281Z,14.35
2019-05-21T14:28:09.579Z,22.58
2019-05-21T14:31:13.850Z,13.68
2019-05-21T14:34:18.264Z,15.43
2019-05-21T14:37:22.449Z,20.45
2019-05-21T14:40:32.185Z,16.70
2019-05-21T14:43:56.707Z,20.08
2019-05-21T14:46:52.476Z,15.50
2019-05-21T14:50:02.077Z,18.30
2019-05-21T14:53:07.300Z,16.77
2019-05-21T14:56:11.571Z,17.23
2019-05-21T14:59:15.908Z,14.65
2019-05-21T15:02:20.166Z,20.12
2019-05-21T15:05:24.598Z,15.72
2019-05-21T15:08:28.914Z,11.60
2019-05-21T15:11:33.213Z,16.77
2019-05-21T15:14:37.451Z,13.30
2019-05-21T15:17:41.751Z,14.45
2019-05-21T15:20:53.859Z,16.12
2019-05-21T15:23:58.297Z,13.72
2019-05-21T15:27:02.578Z,14.07
2019-05-21T15:30:07.279Z,14.15
2019-05-21T15:33:11.552Z,14.25
2019-05-21T15:36:15.776Z,11.20
2019-05-21T15:39:19.964Z,11.88
2019-05-21T15:42:24.339Z,12.03
2019-05-21T15:45:29.061Z,9.55
2019-05-21T15:48:33.353Z,10.58
2019-05-21T15:51:37.656Z,10.15
2019-05-21T15:54:41.905Z,15.10
2019-05-21T15:57:46.152Z,8.68
2019-05-21T16:00:51.519Z,12.53
2019-05-21T16:03:55.803Z,14.45
2019-05-21T16:07:00.166Z,11.25
2019-05-21T16:10:04.892Z,11.60
2019-05-21T16:13:09.221Z,10.72
2019-05-21T16:16:13.540Z,12.95
2019-05-21T16:19:17.784Z,19.60
2019-05-21T16:22:22.065Z,15.45
2019-05-21T16:25:26.353Z,14.80
2019-05-21T16:28:30.618Z,14.95
2019-05-21T16:31:34.916Z,16.27
2019-05-21T16:34:39.113Z,13.00
2019-05-21T16:37:43.464Z,11.28
2019-05-21T16:40:47.874Z,14.73
2019-05-21T16:43:52.198Z,12.65
2019-05-21T16:46:56.458Z,11.93
2019-05-21T16:50:00.761Z,14.43
2019-05-21T16:53:05.071Z,14.78
2019-05-21T16:56:09.383Z,11.70
2019-05-21T16:59:13.668Z,12.13
2019-05-21T17:02:17.999Z,9.95
2019-05-21T17:05:22.256Z,12.43
2019-05-21T17:08:26.587Z,14.50
2019-05-21T17:11:30.892Z,10.30
2019-05-21T17:14:35.200Z,8.03
2019-05-21T17:17:39.505Z,8.70
2019-05-21T17:20:43.863Z,12.63
2019-05-21T17:23:48.176Z,14.65
2019-05-21T17:26:52.544Z,8.35
2019-05-21T17:29:56.917Z,11.65
2019-05-21T17:33:01.230Z,14.45
2019-05-21T17:36:05.563Z,16.55
2019-05-21T17:39:09.922Z,13.28
2019-05-21T17:42:15.778Z,12.28
2019-05-21T17:45:20.660Z,13.53
2019-05-21T17:48:24.960Z,16.20
2019-05-21T17:51:29.477Z,10.63
2019-05-21T17:54:33.750Z,11.30
2019-05-21T17:57:38.528Z,11.43
2019-05-21T18:00:52.229Z,18.92
2019-05-21T18:03:56.611Z,16.07
2019-05-21T18:07:01.619Z,13.22
2019-05-21T18:10:06.866Z,10.68
2019-05-21T18:13:12.534Z,14.30
2019-05-21T18:16:16.855Z,15.75
2019-05-21T18:19:21.565Z,15.68
2019-05-21T18:22:26.681Z,16.52
2019-05-21T18:25:31.020Z,15.63
2019-05-21T18:28:35.830Z,13.90
2019-05-21T18:31:40.713Z,15.83
2019-05-21T18:34:45.158Z,17.75
2019-05-21T18:37:49.507Z,20.80
2019-05-21T18:40:53.760Z,15.20
2019-05-21T18:43:58.023Z,18.15
2019-05-21T18:47:02.369Z,25.60
2019-05-21T18:50:06.679Z,17.23
2019-05-21T18:53:10.979Z,15.88
2019-05-21T18:56:15.304Z,21.17
2019-05-21T18:59:19.788Z,23.42
2019-05-21T19:02:24.069Z,23.98
2019-05-21T19:05:28.379Z,22.52
2019-05-21T19:08:33.841Z,25.60
2019-05-21T19:11:38.515Z,25.65
2019-05-21T19:14:44.930Z,28.05
2019-05-21T19:17:49.001Z,26.52
2019-05-21T19:20:53.376Z,23.38
2019-05-21T19:23:57.852Z,30.20
2019-05-21T19:27:02.204Z,35.33
2019-05-21T19:30:07.452Z,31.05
2019-05-21T19:33:11.836Z,33.20
2019-05-21T19:36:16.087Z,33.00
2019-05-21T19:39:20.418Z,33.58
2019-05-21T19:42:24.760Z,33.73
2019-05-21T19:45:31.414Z,32.50
2019-05-21T19:48:35.412Z,41.95
2019-05-21T19:51:39.644Z,35.90
2019-05-21T19:54:43.951Z,43.73
2019-05-21T19:57:48.560Z,40.83
2019-05-21T20:00:54.828Z,40.08
2019-05-21T20:03:59.112Z,45.95
2019-05-21T20:07:05.411Z,45.25
2019-05-21T20:10:10.374Z,42.17
2019-05-21T20:13:14.882Z,47.58
2019-05-21T20:16:19.971Z,45.85
2019-05-21T20:19:25.472Z,44.95
2019-05-21T20:22:33.771Z,46.48
2019-05-21T20:25:38.558Z,48.83
2019-05-21T20:28:42.852Z,48.95
2019-05-21T20:31:47.505Z,50.80
2019-05-21T20:34:52.112Z,45.43
2019-05-21T20:37:56.364Z,50.35
2019-05-21T20:41:00.775Z,52.65
2019-05-21T20:44:07.317Z,47.35
2019-05-21T20:47:13.474Z,49.20
2019-05-21T20:50:18.946Z,48.83
2019-05-21T20:53:23.588Z,45.15
2019-05-21T20:56:28.382Z,44.77
2019-05-21T20:59:32.632Z,46.83
2019-05-21T21:02:37.461Z,48.23
2019-05-21T21:05:41.997Z,44.93
2019-05-21T21:08:46.623Z,46.68
2019-05-21T21:11:50.902Z,51.73
2019-05-21T21:14:56.058Z,47.20
2019-05-21T21:18:00.905Z,45.83
2019-05-21T21:21:05.317Z,50.52
2019-05-21T21:24:10.354Z,43.73
2019-05-21T21:27:15.543Z,42.05
2019-05-21T21:30:20.020Z,46.77
2019-05-21T21:33:24.378Z,43.10
2019-05-21T21:36:29.784Z,46.55
2019-05-21T21:39:34.869Z,46.02
2019-05-21T21:42:39.596Z,46.70
2019-05-21T21:45:44.010Z,53.00
2019-05-21T21:48:48.582Z,47.98
2019-05-21T21:51:53.292Z,56.35
2019-05-21T21:54:57.627Z,44.90
2019-05-21T21:58:02.071Z,42.55
2019-05-21T22:01:43.110Z,42.00
2019-05-21T22:05:08.060Z,44.00
2019-05-21T22:08:12.532Z,42.10
2019-05-21T22:11:18.400Z,48.45
2019-05-21T22:14:23.183Z,45.50
2019-05-21T22:17:27.431Z,45.12
2019-05-21T22:20:32.088Z,41.42
2019-05-21T22:23:36.662Z,45.52
2019-05-21T22:26:41.467Z,46.05
2019-05-21T22:29:45.908Z,47.13
2019-05-21T22:32:50.181Z,50.05
2019-05-21T22:35:54.488Z,47.40
2019-05-21T22:38:58.739Z,53.40
2019-05-21T22:42:03.166Z,53.85
2019-05-21T22:45:09.233Z,52.27
2019-05-21T22:48:13.762Z,54.83
2019-05-21T22:51:18.036Z,50.33
2019-05-21T22:54:22.405Z,51.98
2019-05-21T22:57:26.659Z,48.65
2019-05-21T23:00:32.615Z,47.93
2019-05-21T23:03:37.184Z,50.38
2019-05-21T23:06:41.793Z,49.55
2019-05-21T23:09:46.059Z,51.33
2019-05-21T23:12:50.519Z,48.40
2019-05-21T23:15:55.116Z,48.68
2019-05-21T23:18:59.756Z,54.30
2019-05-21T23:22:05.787Z,47.80
2019-05-21T23:25:11.417Z,47.53
2019-05-21T23:28:15.959Z,52.55
2019-05-21T23:31:20.750Z,50.88
2019-05-21T23:34:25.417Z,56.23
2019-05-21T23:37:31.391Z,56.33
2019-05-21T23:40:35.774Z,58.15
2019-05-21T23:43:40.241Z,62.80
2019-05-21T23:46:44.687Z,57.15
2019-05-21T23:49:49.044Z,61.98
2019-05-21T23:52:55.191Z,58.15
2019-05-21T23:55:59.496Z,59.55
2019-05-21T23:59:05.695Z,58.05
